sensor_id;sensor_type;location;lat;lon;timestamp;temperature;humidity
38456;DHT22;24237;50.106;20.014;2023-02-28T00:00:39;3.30;99.90
38456;DHT22;24237;50.106;20.014;2023-02-28T00:03:05;3.20;99.90
38456;DHT22;24237;50.106;20.014;2023-02-28T00:05:31;3.10;99.90
38456;DHT22;24237;50.106;20.014;2023-02-28T00:07:57;3.00;99.90
38456;DHT22;24237;50.106;20.014;2023-02-28T00:10:28;3.10;99.90
38456;DHT22;24237;50.106;20.014;2023-02-28T00:12:56;3.10;99.90
38456;DHT22;24237;50.106;20.014;2023-02-28T00:15:24;3.30;99.90
38456;DHT22;24237;50.106;20.014;2023-02-28T00:17:50;3.20;99.90
38456;DHT22;24237;50.106;20.014;2023-02-28T00:20:16;3.20;99.90
38456;DHT22;24237;50.106;20.014;2023-02-28T00:22:43;3.20;99.90
38456;DHT22;24237;50.106;20.014;2023-02-28T00:25:10;3.60;99.90
38456;DHT22;24237;50.106;20.014;2023-02-28T00:27:37;3.40;99.90
38456;DHT22;24237;50.106;20.014;2023-02-28T00:30:04;3.60;99.90
38456;DHT22;24237;50.106;20.014;2023-02-28T00:32:30;3.30;99.90
38456;DHT22;24237;50.106;20.014;2023-02-28T00:34:56;3.10;99.90
38456;DHT22;24237;50.106;20.014;2023-02-28T00:37:22;3.00;99.90
38456;DHT22;24237;50.106;20.014;2023-02-28T00:39:48;2.90;99.90
38456;DHT22;24237;50.106;20.014;2023-02-28T00:42:13;2.80;99.90
38456;DHT22;24237;50.106;20.014;2023-02-28T00:44:39;2.80;99.90
38456;DHT22;24237;50.106;20.014;2023-02-28T00:47:05;2.70;99.90
38456;DHT22;24237;50.106;20.014;2023-02-28T00:49:31;2.60;99.90
38456;DHT22;24237;50.106;20.014;2023-02-28T00:52:16;2.50;99.90
38456;DHT22;24237;50.106;20.014;2023-02-28T00:54:42;2.50;99.90
38456;DHT22;24237;50.106;20.014;2023-02-28T00:57:07;2.40;99.90
38456;DHT22;24237;50.106;20.014;2023-02-28T00:59:33;2.30;99.90
38456;DHT22;24237;50.106;20.014;2023-02-28T01:01:59;2.30;99.90
38456;DHT22;24237;50.106;20.014;2023-02-28T01:04:24;2.40;99.90
38456;DHT22;24237;50.106;20.014;2023-02-28T01:06:50;2.40;99.90
38456;DHT22;24237;50.106;20.014;2023-02-28T01:09:15;2.20;99.90
38456;DHT22;24237;50.106;20.014;2023-02-28T01:11:41;2.10;99.90
38456;DHT22;24237;50.106;20.014;2023-02-28T01:14:14;2.10;99.90
38456;DHT22;24237;50.106;20.014;2023-02-28T01:16:40;2.10;99.90
38456;DHT22;24237;50.106;20.014;2023-02-28T01:19:06;1.90;99.90
38456;DHT22;24237;50.106;20.014;2023-02-28T01:21:32;1.90;99.90
38456;DHT22;24237;50.106;20.014;2023-02-28T01:23:58;1.80;99.90
38456;DHT22;24237;50.106;20.014;2023-02-28T01:26:24;1.80;99.90
38456;DHT22;24237;50.106;20.014;2023-02-28T01:28:51;1.80;99.90
38456;DHT22;24237;50.106;20.014;2023-02-28T01:31:18;1.70;99.90
38456;DHT22;24237;50.106;20.014;2023-02-28T01:33:44;1.70;99.90
38456;DHT22;24237;50.106;20.014;2023-02-28T01:36:16;1.70;99.90
38456;DHT22;24237;50.106;20.014;2023-02-28T01:38:42;1.70;99.90
38456;DHT22;24237;50.106;20.014;2023-02-28T01:41:16;1.60;99.90
38456;DHT22;24237;50.106;20.014;2023-02-28T01:46:07;1.80;99.90
38456;DHT22;24237;50.106;20.014;2023-02-28T01:48:37;1.80;99.90
38456;DHT22;24237;50.106;20.014;2023-02-28T01:51:09;1.80;99.90
38456;DHT22;24237;50.106;20.014;2023-02-28T01:53:41;1.90;99.90
38456;DHT22;24237;50.106;20.014;2023-02-28T01:56:10;1.90;99.90
38456;DHT22;24237;50.106;20.014;2023-02-28T01:58:37;1.90;99.90
38456;DHT22;24237;50.106;20.014;2023-02-28T02:01:03;2.00;99.90
38456;DHT22;24237;50.106;20.014;2023-02-28T02:03:30;2.00;99.90
38456;DHT22;24237;50.106;20.014;2023-02-28T02:05:56;2.00;99.90
38456;DHT22;24237;50.106;20.014;2023-02-28T02:08:24;2.10;99.90
38456;DHT22;24237;50.106;20.014;2023-02-28T02:10:53;2.10;99.90
38456;DHT22;24237;50.106;20.014;2023-02-28T02:19:01;2.00;99.90
38456;DHT22;24237;50.106;20.014;2023-02-28T02:22:01;1.90;99.90
38456;DHT22;24237;50.106;20.014;2023-02-28T02:35:34;2.10;99.90
38456;DHT22;24237;50.106;20.014;2023-02-28T02:38:31;2.30;99.90
38456;DHT22;24237;50.106;20.014;2023-02-28T02:46:21;1.90;99.90
38456;DHT22;24237;50.106;20.014;2023-02-28T02:48:48;1.90;99.90
38456;DHT22;24237;50.106;20.014;2023-02-28T02:51:17;1.70;99.90
38456;DHT22;24237;50.106;20.014;2023-02-28T02:54:00;1.50;99.90
38456;DHT22;24237;50.106;20.014;2023-02-28T02:56:29;1.40;99.90
38456;DHT22;24237;50.106;20.014;2023-02-28T02:59:01;1.20;99.90
38456;DHT22;24237;50.106;20.014;2023-02-28T03:01:29;1.20;99.90
38456;DHT22;24237;50.106;20.014;2023-02-28T03:03:58;1.20;99.90
38456;DHT22;24237;50.106;20.014;2023-02-28T03:06:25;1.10;99.90
38456;DHT22;24237;50.106;20.014;2023-02-28T03:08:51;1.20;99.90
38456;DHT22;24237;50.106;20.014;2023-02-28T03:11:17;1.40;99.90
38456;DHT22;24237;50.106;20.014;2023-02-28T03:16:36;1.60;99.90
38456;DHT22;24237;50.106;20.014;2023-02-28T03:24:50;1.40;99.90
38456;DHT22;24237;50.106;20.014;2023-02-28T03:27:31;1.40;99.90
38456;DHT22;24237;50.106;20.014;2023-02-28T03:30:21;1.40;99.90
38456;DHT22;24237;50.106;20.014;2023-02-28T03:33:08;1.20;99.90
38456;DHT22;24237;50.106;20.014;2023-02-28T03:35:40;1.10;99.90
38456;DHT22;24237;50.106;20.014;2023-02-28T03:38:16;1.40;99.90
38456;DHT22;24237;50.106;20.014;2023-02-28T03:40:51;1.40;99.90
38456;DHT22;24237;50.106;20.014;2023-02-28T03:43:26;1.30;99.90
38456;DHT22;24237;50.106;20.014;2023-02-28T03:45:54;1.40;99.90
38456;DHT22;24237;50.106;20.014;2023-02-28T03:48:32;1.20;99.90
38456;DHT22;24237;50.106;20.014;2023-02-28T03:51:03;1.40;99.90
38456;DHT22;24237;50.106;20.014;2023-02-28T03:53:41;1.30;99.90
38456;DHT22;24237;50.106;20.014;2023-02-28T03:58:54;1.00;99.90
38456;DHT22;24237;50.106;20.014;2023-02-28T04:01:26;0.90;99.90
38456;DHT22;24237;50.106;20.014;2023-02-28T04:03:53;0.80;99.90
38456;DHT22;24237;50.106;20.014;2023-02-28T04:06:21;0.90;99.90
38456;DHT22;24237;50.106;20.014;2023-02-28T04:08:47;0.90;99.90
38456;DHT22;24237;50.106;20.014;2023-02-28T04:11:18;0.90;99.90
38456;DHT22;24237;50.106;20.014;2023-02-28T04:13:45;0.90;99.90
38456;DHT22;24237;50.106;20.014;2023-02-28T04:16:10;0.90;99.90
38456;DHT22;24237;50.106;20.014;2023-02-28T04:18:41;0.90;99.90
38456;DHT22;24237;50.106;20.014;2023-02-28T04:21:09;1.00;99.90
38456;DHT22;24237;50.106;20.014;2023-02-28T04:23:35;1.20;99.90
38456;DHT22;24237;50.106;20.014;2023-02-28T04:26:01;1.30;99.90
38456;DHT22;24237;50.106;20.014;2023-02-28T04:28:26;1.20;99.90
38456;DHT22;24237;50.106;20.014;2023-02-28T04:31:01;1.10;99.90
38456;DHT22;24237;50.106;20.014;2023-02-28T04:33:27;0.90;99.90
38456;DHT22;24237;50.106;20.014;2023-02-28T04:36:04;0.70;99.90
38456;DHT22;24237;50.106;20.014;2023-02-28T04:38:36;1.00;99.90
38456;DHT22;24237;50.106;20.014;2023-02-28T04:41:02;1.10;99.90
38456;DHT22;24237;50.106;20.014;2023-02-28T04:43:29;0.90;99.90
38456;DHT22;24237;50.106;20.014;2023-02-28T04:46:01;0.80;99.90
38456;DHT22;24237;50.106;20.014;2023-02-28T04:48:28;0.60;99.90
38456;DHT22;24237;50.106;20.014;2023-02-28T04:50:55;0.60;99.90
38456;DHT22;24237;50.106;20.014;2023-02-28T04:53:21;0.70;99.90
38456;DHT22;24237;50.106;20.014;2023-02-28T04:55:46;0.70;99.90
38456;DHT22;24237;50.106;20.014;2023-02-28T04:58:13;0.90;99.90
38456;DHT22;24237;50.106;20.014;2023-02-28T05:00:39;0.70;99.90
38456;DHT22;24237;50.106;20.014;2023-02-28T05:03:05;0.70;99.90
38456;DHT22;24237;50.106;20.014;2023-02-28T05:05:30;0.60;99.90
38456;DHT22;24237;50.106;20.014;2023-02-28T05:07:56;0.60;99.90
38456;DHT22;24237;50.106;20.014;2023-02-28T05:10:22;0.60;99.90
38456;DHT22;24237;50.106;20.014;2023-02-28T05:12:48;1.00;99.90
38456;DHT22;24237;50.106;20.014;2023-02-28T05:15:15;1.20;99.90
38456;DHT22;24237;50.106;20.014;2023-02-28T05:17:41;0.80;99.90
38456;DHT22;24237;50.106;20.014;2023-02-28T05:20:07;0.60;99.90
38456;DHT22;24237;50.106;20.014;2023-02-28T05:22:36;0.50;99.90
38456;DHT22;24237;50.106;20.014;2023-02-28T05:25:03;0.40;99.90
38456;DHT22;24237;50.106;20.014;2023-02-28T05:27:30;0.30;99.90
38456;DHT22;24237;50.106;20.014;2023-02-28T05:29:56;0.30;99.90
38456;DHT22;24237;50.106;20.014;2023-02-28T05:32:22;0.30;99.90
38456;DHT22;24237;50.106;20.014;2023-02-28T05:34:47;0.20;99.90
38456;DHT22;24237;50.106;20.014;2023-02-28T05:37:14;0.30;99.90
38456;DHT22;24237;50.106;20.014;2023-02-28T05:39:41;0.30;99.90
38456;DHT22;24237;50.106;20.014;2023-02-28T05:42:06;0.30;99.90
38456;DHT22;24237;50.106;20.014;2023-02-28T05:44:32;0.30;99.90
38456;DHT22;24237;50.106;20.014;2023-02-28T05:47:18;0.50;99.90
38456;DHT22;24237;50.106;20.014;2023-02-28T05:49:43;0.50;99.90
38456;DHT22;24237;50.106;20.014;2023-02-28T05:52:09;0.60;99.90
38456;DHT22;24237;50.106;20.014;2023-02-28T05:54:36;0.70;99.90
38456;DHT22;24237;50.106;20.014;2023-02-28T05:57:01;1.30;99.90
38456;DHT22;24237;50.106;20.014;2023-02-28T05:59:27;1.10;99.90
38456;DHT22;24237;50.106;20.014;2023-02-28T06:01:53;1.30;99.90
38456;DHT22;24237;50.106;20.014;2023-02-28T06:04:20;1.00;99.90
38456;DHT22;24237;50.106;20.014;2023-02-28T06:06:47;1.40;99.90
38456;DHT22;24237;50.106;20.014;2023-02-28T06:09:13;1.20;99.90
38456;DHT22;24237;50.106;20.014;2023-02-28T06:11:39;1.30;99.90
38456;DHT22;24237;50.106;20.014;2023-02-28T06:14:05;1.20;99.90
38456;DHT22;24237;50.106;20.014;2023-02-28T06:16:33;1.30;99.90
38456;DHT22;24237;50.106;20.014;2023-02-28T06:19:01;1.40;99.90
38456;DHT22;24237;50.106;20.014;2023-02-28T06:21:27;1.20;99.90
38456;DHT22;24237;50.106;20.014;2023-02-28T06:23:53;1.20;99.90
38456;DHT22;24237;50.106;20.014;2023-02-28T06:26:19;1.60;99.90
38456;DHT22;24237;50.106;20.014;2023-02-28T06:28:45;1.70;99.90
38456;DHT22;24237;50.106;20.014;2023-02-28T06:31:13;1.70;99.90
38456;DHT22;24237;50.106;20.014;2023-02-28T06:33:39;1.70;99.90
38456;DHT22;24237;50.106;20.014;2023-02-28T06:36:06;1.60;99.90
38456;DHT22;24237;50.106;20.014;2023-02-28T06:38:33;1.40;99.90
38456;DHT22;24237;50.106;20.014;2023-02-28T06:40:59;1.40;99.90
38456;DHT22;24237;50.106;20.014;2023-02-28T06:43:31;1.50;99.90
38456;DHT22;24237;50.106;20.014;2023-02-28T06:45:59;1.60;99.90
38456;DHT22;24237;50.106;20.014;2023-02-28T06:48:26;1.50;99.90
38456;DHT22;24237;50.106;20.014;2023-02-28T06:50:51;1.40;99.90
38456;DHT22;24237;50.106;20.014;2023-02-28T06:53:17;1.40;99.90
38456;DHT22;24237;50.106;20.014;2023-02-28T06:55:43;1.60;99.90
38456;DHT22;24237;50.106;20.014;2023-02-28T06:58:09;1.60;99.90
38456;DHT22;24237;50.106;20.014;2023-02-28T07:00:42;1.50;99.90
38456;DHT22;24237;50.106;20.014;2023-02-28T07:03:08;1.50;99.90
38456;DHT22;24237;50.106;20.014;2023-02-28T07:05:37;1.40;99.90
38456;DHT22;24237;50.106;20.014;2023-02-28T07:08:03;1.50;99.90
38456;DHT22;24237;50.106;20.014;2023-02-28T07:10:30;1.50;99.90
38456;DHT22;24237;50.106;20.014;2023-02-28T07:12:55;1.20;99.90
38456;DHT22;24237;50.106;20.014;2023-02-28T07:15:21;1.20;99.90
38456;DHT22;24237;50.106;20.014;2023-02-28T07:17:47;1.60;99.90
38456;DHT22;24237;50.106;20.014;2023-02-28T07:20:13;1.90;99.90
38456;DHT22;24237;50.106;20.014;2023-02-28T07:22:38;1.90;99.90
38456;DHT22;24237;50.106;20.014;2023-02-28T07:25:05;1.80;99.90
38456;DHT22;24237;50.106;20.014;2023-02-28T07:27:30;2.20;99.90
38456;DHT22;24237;50.106;20.014;2023-02-28T07:29:56;2.40;99.90
38456;DHT22;24237;50.106;20.014;2023-02-28T07:32:22;2.50;99.90
38456;DHT22;24237;50.106;20.014;2023-02-28T07:34:47;2.50;99.90
38456;DHT22;24237;50.106;20.014;2023-02-28T07:37:14;2.90;99.90
38456;DHT22;24237;50.106;20.014;2023-02-28T07:39:40;2.70;99.90
38456;DHT22;24237;50.106;20.014;2023-02-28T07:42:07;2.70;99.90
38456;DHT22;24237;50.106;20.014;2023-02-28T07:44:36;2.50;99.90
38456;DHT22;24237;50.106;20.014;2023-02-28T07:47:07;2.50;99.90
38456;DHT22;24237;50.106;20.014;2023-02-28T07:49:33;2.80;99.90
38456;DHT22;24237;50.106;20.014;2023-02-28T07:51:59;2.80;99.90
38456;DHT22;24237;50.106;20.014;2023-02-28T07:54:25;2.90;99.90
38456;DHT22;24237;50.106;20.014;2023-02-28T07:56:50;2.90;99.90
38456;DHT22;24237;50.106;20.014;2023-02-28T07:59:16;2.90;99.90
38456;DHT22;24237;50.106;20.014;2023-02-28T08:01:41;3.20;99.90
38456;DHT22;24237;50.106;20.014;2023-02-28T08:04:09;3.10;99.90
38456;DHT22;24237;50.106;20.014;2023-02-28T08:06:35;3.00;99.90
38456;DHT22;24237;50.106;20.014;2023-02-28T08:09:01;3.20;99.90
38456;DHT22;24237;50.106;20.014;2023-02-28T08:11:26;3.20;99.90
38456;DHT22;24237;50.106;20.014;2023-02-28T08:13:52;3.30;99.90
38456;DHT22;24237;50.106;20.014;2023-02-28T08:16:18;3.30;99.90
38456;DHT22;24237;50.106;20.014;2023-02-28T08:18:48;3.50;99.90
38456;DHT22;24237;50.106;20.014;2023-02-28T08:21:15;3.70;99.90
38456;DHT22;24237;50.106;20.014;2023-02-28T08:23:40;3.60;99.90
38456;DHT22;24237;50.106;20.014;2023-02-28T08:26:06;4.10;99.90
38456;DHT22;24237;50.106;20.014;2023-02-28T08:28:32;4.10;99.90
38456;DHT22;24237;50.106;20.014;2023-02-28T08:30:57;4.10;99.90
38456;DHT22;24237;50.106;20.014;2023-02-28T08:33:24;4.00;99.90
38456;DHT22;24237;50.106;20.014;2023-02-28T08:35:55;3.90;99.90
38456;DHT22;24237;50.106;20.014;2023-02-28T08:38:22;3.80;99.90
38456;DHT22;24237;50.106;20.014;2023-02-28T08:40:48;3.80;99.90
38456;DHT22;24237;50.106;20.014;2023-02-28T08:43:14;3.70;99.90
38456;DHT22;24237;50.106;20.014;2023-02-28T08:45:39;3.90;99.90
38456;DHT22;24237;50.106;20.014;2023-02-28T08:48:05;3.80;99.90
38456;DHT22;24237;50.106;20.014;2023-02-28T08:50:31;3.90;99.90
38456;DHT22;24237;50.106;20.014;2023-02-28T08:52:57;4.10;99.90
38456;DHT22;24237;50.106;20.014;2023-02-28T08:55:23;4.40;99.90
38456;DHT22;24237;50.106;20.014;2023-02-28T08:57:49;4.20;99.90
38456;DHT22;24237;50.106;20.014;2023-02-28T09:00:14;4.10;99.90
38456;DHT22;24237;50.106;20.014;2023-02-28T09:02:41;4.00;99.90
38456;DHT22;24237;50.106;20.014;2023-02-28T09:05:08;4.30;99.90
38456;DHT22;24237;50.106;20.014;2023-02-28T09:07:34;4.20;99.90
38456;DHT22;24237;50.106;20.014;2023-02-28T09:09:59;4.20;99.90
38456;DHT22;24237;50.106;20.014;2023-02-28T09:12:26;4.60;99.80
38456;DHT22;24237;50.106;20.014;2023-02-28T09:14:53;4.80;99.90
38456;DHT22;24237;50.106;20.014;2023-02-28T09:17:19;5.00;99.90
38456;DHT22;24237;50.106;20.014;2023-02-28T09:19:45;5.00;99.30
38456;DHT22;24237;50.106;20.014;2023-02-28T09:22:12;5.20;98.60
38456;DHT22;24237;50.106;20.014;2023-02-28T09:24:38;5.00;97.70
38456;DHT22;24237;50.106;20.014;2023-02-28T09:27:04;4.70;98.20
38456;DHT22;24237;50.106;20.014;2023-02-28T09:29:34;4.50;99.00
38456;DHT22;24237;50.106;20.014;2023-02-28T09:32:00;4.30;98.90
38456;DHT22;24237;50.106;20.014;2023-02-28T09:34:26;4.40;99.20
38456;DHT22;24237;50.106;20.014;2023-02-28T09:36:52;4.70;99.00
38456;DHT22;24237;50.106;20.014;2023-02-28T09:39:20;4.90;98.60
38456;DHT22;24237;50.106;20.014;2023-02-28T09:41:48;5.10;98.40
38456;DHT22;24237;50.106;20.014;2023-02-28T09:46:57;4.70;98.20
38456;DHT22;24237;50.106;20.014;2023-02-28T09:49:31;4.80;98.30
38456;DHT22;24237;50.106;20.014;2023-02-28T09:52:07;4.90;98.50
38456;DHT22;24237;50.106;20.014;2023-02-28T09:54:35;4.80;98.60
38456;DHT22;24237;50.106;20.014;2023-02-28T09:57:34;4.70;98.30
38456;DHT22;24237;50.106;20.014;2023-02-28T10:00:19;4.70;98.80
38456;DHT22;24237;50.106;20.014;2023-02-28T10:05:59;4.60;99.00
38456;DHT22;24237;50.106;20.014;2023-02-28T10:08:43;4.60;99.00
38456;DHT22;24237;50.106;20.014;2023-02-28T10:11:14;4.20;99.00
38456;DHT22;24237;50.106;20.014;2023-02-28T10:13:53;4.10;99.80
38456;DHT22;24237;50.106;20.014;2023-02-28T10:16:28;4.10;99.30
38456;DHT22;24237;50.106;20.014;2023-02-28T10:19:03;4.10;99.70
38456;DHT22;24237;50.106;20.014;2023-02-28T10:21:39;4.40;99.70
38456;DHT22;24237;50.106;20.014;2023-02-28T10:24:41;4.50;99.70
38456;DHT22;24237;50.106;20.014;2023-02-28T10:27:17;4.30;98.90
38456;DHT22;24237;50.106;20.014;2023-02-28T10:29:46;4.50;98.50
38456;DHT22;24237;50.106;20.014;2023-02-28T10:32:15;4.20;99.10
38456;DHT22;24237;50.106;20.014;2023-02-28T10:34:42;4.30;98.70
38456;DHT22;24237;50.106;20.014;2023-02-28T10:37:10;4.50;99.20
38456;DHT22;24237;50.106;20.014;2023-02-28T10:39:46;4.60;98.50
38456;DHT22;24237;50.106;20.014;2023-02-28T10:42:25;4.20;98.70
38456;DHT22;24237;50.106;20.014;2023-02-28T10:53:27;4.60;98.60
38456;DHT22;24237;50.106;20.014;2023-02-28T10:59:02;5.10;98.30
38456;DHT22;24237;50.106;20.014;2023-02-28T11:06:56;5.20;98.00
38456;DHT22;24237;50.106;20.014;2023-02-28T11:09:24;4.90;98.50
38456;DHT22;24237;50.106;20.014;2023-02-28T11:11:50;4.80;98.90
38456;DHT22;24237;50.106;20.014;2023-02-28T11:14:25;4.80;99.00
38456;DHT22;24237;50.106;20.014;2023-02-28T11:16:53;4.70;99.20
38456;DHT22;24237;50.106;20.014;2023-02-28T11:19:24;4.80;99.00
38456;DHT22;24237;50.106;20.014;2023-02-28T11:21:59;4.70;98.80
38456;DHT22;24237;50.106;20.014;2023-02-28T11:24:27;4.80;98.70
38456;DHT22;24237;50.106;20.014;2023-02-28T11:26:53;4.70;98.40
38456;DHT22;24237;50.106;20.014;2023-02-28T11:29:24;4.60;98.40
38456;DHT22;24237;50.106;20.014;2023-02-28T11:32:12;4.50;99.10
38456;DHT22;24237;50.106;20.014;2023-02-28T11:34:40;4.80;99.00
38456;DHT22;24237;50.106;20.014;2023-02-28T11:37:12;4.80;98.50
38456;DHT22;24237;50.106;20.014;2023-02-28T11:39:38;5.10;98.20
38456;DHT22;24237;50.106;20.014;2023-02-28T11:42:28;5.20;98.00
38456;DHT22;24237;50.106;20.014;2023-02-28T11:48:08;5.50;97.90
38456;DHT22;24237;50.106;20.014;2023-02-28T11:56:55;6.10;97.10
38456;DHT22;24237;50.106;20.014;2023-02-28T12:03:03;5.90;96.90
38456;DHT22;24237;50.106;20.014;2023-02-28T12:05:44;5.80;97.40
38456;DHT22;24237;50.106;20.014;2023-02-28T12:08:49;6.20;96.80
38456;DHT22;24237;50.106;20.014;2023-02-28T12:14:15;6.40;96.40
38456;DHT22;24237;50.106;20.014;2023-02-28T12:22:38;9.00;93.30
38456;DHT22;24237;50.106;20.014;2023-02-28T12:25:28;8.10;93.00
38456;DHT22;24237;50.106;20.014;2023-02-28T12:27:58;9.80;92.70
38456;DHT22;24237;50.106;20.014;2023-02-28T12:30:28;10.40;91.20
38456;DHT22;24237;50.106;20.014;2023-02-28T12:33:04;10.40;90.40
38456;DHT22;24237;50.106;20.014;2023-02-28T12:35:38;11.40;90.00
38456;DHT22;24237;50.106;20.014;2023-02-28T12:43:13;12.80;83.70
38456;DHT22;24237;50.106;20.014;2023-02-28T12:45:47;13.00;80.50
38456;DHT22;24237;50.106;20.014;2023-02-28T12:48:26;13.30;79.70
38456;DHT22;24237;50.106;20.014;2023-02-28T12:50:55;13.50;77.90
38456;DHT22;24237;50.106;20.014;2023-02-28T12:53:30;13.00;79.40
38456;DHT22;24237;50.106;20.014;2023-02-28T13:02:00;12.10;79.60
38456;DHT22;24237;50.106;20.014;2023-02-28T13:10:07;13.70;76.30
38456;DHT22;24237;50.106;20.014;2023-02-28T13:12:34;13.50;77.00
38456;DHT22;24237;50.106;20.014;2023-02-28T13:17:52;14.00;75.10
38456;DHT22;24237;50.106;20.014;2023-02-28T13:20:35;14.30;74.10
38456;DHT22;24237;50.106;20.014;2023-02-28T13:23:01;13.80;74.00
38456;DHT22;24237;50.106;20.014;2023-02-28T13:27:59;13.60;75.60
38456;DHT22;24237;50.106;20.014;2023-02-28T13:38:41;12.60;77.00
38456;DHT22;24237;50.106;20.014;2023-02-28T13:46:32;12.90;75.20
38456;DHT22;24237;50.106;20.014;2023-02-28T14:00:35;13.40;73.60
38456;DHT22;24237;50.106;20.014;2023-02-28T14:03:24;13.10;74.60
38456;DHT22;24237;50.106;20.014;2023-02-28T14:08:36;13.00;75.60
38456;DHT22;24237;50.106;20.014;2023-02-28T14:11:06;13.50;75.30
38456;DHT22;24237;50.106;20.014;2023-02-28T14:13:44;13.30;74.00
38456;DHT22;24237;50.106;20.014;2023-02-28T14:16:14;12.70;74.70
38456;DHT22;24237;50.106;20.014;2023-02-28T14:18:47;12.80;75.00
38456;DHT22;24237;50.106;20.014;2023-02-28T14:21:25;13.60;73.50
38456;DHT22;24237;50.106;20.014;2023-02-28T14:26:53;14.20;72.40
38456;DHT22;24237;50.106;20.014;2023-02-28T14:29:59;13.80;72.00
38456;DHT22;24237;50.106;20.014;2023-02-28T14:35:18;12.90;72.60
38456;DHT22;24237;50.106;20.014;2023-02-28T14:37:45;12.80;73.90
38456;DHT22;24237;50.106;20.014;2023-02-28T14:40:33;12.40;74.50
38456;DHT22;24237;50.106;20.014;2023-02-28T14:43:01;11.80;74.60
38456;DHT22;24237;50.106;20.014;2023-02-28T14:45:32;11.70;75.40
38456;DHT22;24237;50.106;20.014;2023-02-28T14:48:00;11.80;75.70
38456;DHT22;24237;50.106;20.014;2023-02-28T14:50:31;11.80;75.70
38456;DHT22;24237;50.106;20.014;2023-02-28T14:52:59;11.40;77.00
38456;DHT22;24237;50.106;20.014;2023-02-28T14:55:30;11.50;77.40
38456;DHT22;24237;50.106;20.014;2023-02-28T14:57:59;12.10;75.40
38456;DHT22;24237;50.106;20.014;2023-02-28T15:00:30;11.70;76.40
38456;DHT22;24237;50.106;20.014;2023-02-28T15:02:59;11.00;77.30
38456;DHT22;24237;50.106;20.014;2023-02-28T15:05:32;9.70;79.50
38456;DHT22;24237;50.106;20.014;2023-02-28T15:08:14;9.60;80.30
38456;DHT22;24237;50.106;20.014;2023-02-28T15:10:54;9.60;80.40
38456;DHT22;24237;50.106;20.014;2023-02-28T15:13:21;10.20;80.00
38456;DHT22;24237;50.106;20.014;2023-02-28T15:15:55;9.50;80.10
38456;DHT22;24237;50.106;20.014;2023-02-28T15:18:30;8.70;82.50
38456;DHT22;24237;50.106;20.014;2023-02-28T15:21:04;8.50;82.70
38456;DHT22;24237;50.106;20.014;2023-02-28T15:23:32;8.90;82.40
38456;DHT22;24237;50.106;20.014;2023-02-28T15:25:58;9.10;81.70
38456;DHT22;24237;50.106;20.014;2023-02-28T15:28:24;9.50;80.60
38456;DHT22;24237;50.106;20.014;2023-02-28T15:30:53;9.40;81.10
38456;DHT22;24237;50.106;20.014;2023-02-28T15:33:30;8.80;82.70
38456;DHT22;24237;50.106;20.014;2023-02-28T15:36:15;8.60;83.10
38456;DHT22;24237;50.106;20.014;2023-02-28T15:38:43;8.20;83.60
38456;DHT22;24237;50.106;20.014;2023-02-28T15:41:37;7.90;84.30
38456;DHT22;24237;50.106;20.014;2023-02-28T15:44:16;7.80;84.60
38456;DHT22;24237;50.106;20.014;2023-02-28T15:46:54;8.00;84.40
38456;DHT22;24237;50.106;20.014;2023-02-28T15:49:21;8.00;85.30
38456;DHT22;24237;50.106;20.014;2023-02-28T15:51:49;8.20;85.50
38456;DHT22;24237;50.106;20.014;2023-02-28T15:54:24;8.20;84.50
38456;DHT22;24237;50.106;20.014;2023-02-28T15:56:57;8.00;84.80
38456;DHT22;24237;50.106;20.014;2023-02-28T15:59:32;7.60;85.30
38456;DHT22;24237;50.106;20.014;2023-02-28T16:02:11;6.90;86.80
38456;DHT22;24237;50.106;20.014;2023-02-28T16:07:43;6.10;90.00
38456;DHT22;24237;50.106;20.014;2023-02-28T16:10:11;6.20;90.20
38456;DHT22;24237;50.106;20.014;2023-02-28T16:12:38;5.90;90.40
38456;DHT22;24237;50.106;20.014;2023-02-28T16:15:17;5.60;90.90
38456;DHT22;24237;50.106;20.014;2023-02-28T16:17:43;5.60;91.30
38456;DHT22;24237;50.106;20.014;2023-02-28T16:20:23;5.60;91.70
38456;DHT22;24237;50.106;20.014;2023-02-28T16:22:50;5.40;92.00
38456;DHT22;24237;50.106;20.014;2023-02-28T16:25:18;5.20;92.50
38456;DHT22;24237;50.106;20.014;2023-02-28T16:27:47;5.00;92.50
38456;DHT22;24237;50.106;20.014;2023-02-28T16:30:24;4.70;93.10
38456;DHT22;24237;50.106;20.014;2023-02-28T16:32:52;4.80;93.70
38456;DHT22;24237;50.106;20.014;2023-02-28T16:35:19;4.80;93.90
38456;DHT22;24237;50.106;20.014;2023-02-28T16:37:45;4.50;94.50
38456;DHT22;24237;50.106;20.014;2023-02-28T16:40:22;4.40;94.70
38456;DHT22;24237;50.106;20.014;2023-02-28T16:42:52;4.40;95.00
38456;DHT22;24237;50.106;20.014;2023-02-28T16:45:24;4.40;95.40
38456;DHT22;24237;50.106;20.014;2023-02-28T16:47:51;4.20;95.60
38456;DHT22;24237;50.106;20.014;2023-02-28T16:50:21;4.20;96.20
38456;DHT22;24237;50.106;20.014;2023-02-28T16:52:48;3.90;96.50
38456;DHT22;24237;50.106;20.014;2023-02-28T16:55:14;3.90;96.90
38456;DHT22;24237;50.106;20.014;2023-02-28T16:57:40;3.80;97.10
38456;DHT22;24237;50.106;20.014;2023-02-28T17:00:08;3.80;97.60
38456;DHT22;24237;50.106;20.014;2023-02-28T17:02:37;3.80;97.90
38456;DHT22;24237;50.106;20.014;2023-02-28T17:05:03;4.00;98.10
38456;DHT22;24237;50.106;20.014;2023-02-28T17:07:29;3.70;98.20
38456;DHT22;24237;50.106;20.014;2023-02-28T17:09:55;3.80;98.40
38456;DHT22;24237;50.106;20.014;2023-02-28T17:12:20;3.70;98.60
38456;DHT22;24237;50.106;20.014;2023-02-28T17:14:46;3.80;99.00
38456;DHT22;24237;50.106;20.014;2023-02-28T17:17:17;3.70;99.00
38456;DHT22;24237;50.106;20.014;2023-02-28T17:19:47;3.50;99.40
38456;DHT22;24237;50.106;20.014;2023-02-28T17:22:13;3.40;99.90
38456;DHT22;24237;50.106;20.014;2023-02-28T17:24:39;3.40;99.90
38456;DHT22;24237;50.106;20.014;2023-02-28T17:27:04;3.50;99.90
38456;DHT22;24237;50.106;20.014;2023-02-28T17:29:31;3.40;99.90
38456;DHT22;24237;50.106;20.014;2023-02-28T17:31:56;3.30;99.90
38456;DHT22;24237;50.106;20.014;2023-02-28T17:34:22;3.30;99.90
38456;DHT22;24237;50.106;20.014;2023-02-28T17:36:49;3.30;99.90
38456;DHT22;24237;50.106;20.014;2023-02-28T17:39:17;3.30;99.90
38456;DHT22;24237;50.106;20.014;2023-02-28T17:41:53;3.20;99.90
38456;DHT22;24237;50.106;20.014;2023-02-28T17:44:22;3.20;99.90
38456;DHT22;24237;50.106;20.014;2023-02-28T17:46:49;3.10;99.90
38456;DHT22;24237;50.106;20.014;2023-02-28T17:49:15;3.10;99.90
38456;DHT22;24237;50.106;20.014;2023-02-28T17:51:41;3.00;99.90
38456;DHT22;24237;50.106;20.014;2023-02-28T17:54:07;3.00;99.90
38456;DHT22;24237;50.106;20.014;2023-02-28T17:56:33;3.00;99.90
38456;DHT22;24237;50.106;20.014;2023-02-28T17:59:00;2.90;99.90
38456;DHT22;24237;50.106;20.014;2023-02-28T18:01:26;3.00;99.90
38456;DHT22;24237;50.106;20.014;2023-02-28T18:03:52;2.90;99.90